Promise, South Dakota
Current Conditions -  °F | °C
As of 1:52 AM on Monday 26 Jan 2015 (Local Time) from KMBG Reporting Station
Clear Clear  
Wind Chill: 32°   Ceiling: Unl
Heat Index: 36°   Visibility: 10mi
Dew Point: 31°   Wind: 5mph
Humidity: 82%   Direction: 280°W
Pressure: 29.79"   Gusts: NA
Location:  45.5528°N, 100.336°W
Report Text: KMBG 260752Z AUTO 28004KT 10SM CLR 02/M01 A2979 RMK AO2 SLP102 T00221006
Loading
Personal Weather Stations






























Interactive Weather Map New forecast layout! Learn more

10-Day Weather Forecast

Advertisements
Track Severe Weather on mobile